Time;durP1;ratioP1;P1;durP2;ratioP2;P2;SDS_P1;SDS_P2;PMS_P1;PMS_P2;Temp;Humidity;BMP_temperature;BMP_pressure;BME280_temperature;BME280_humidity;BME280_pressure;Samples;Min_cycle;Max_cycle;Signal;HPM_P1;HPM_P2
2021/06/05 00:00:20;;;;;;;;;22.00;21.00;;;;;23.62;40.45;99242.53;6225694;27;126805;-61
2021/06/05 00:03:25;;;;;;;;;24.25;22.25;;;;;23.68;39.83;99257.84;6213904;28;125987;-61
2021/06/05 00:06:29;;;;;;;;;24.00;22.00;;;;;23.64;40.57;99262.31;6214247;28;126643;-61
2021/06/05 00:09:31;;;;;;;;;27.00;24.40;;;;;23.65;40.43;99262.00;6222474;28;124101;-61
2021/06/05 00:12:35;;;;;;;;;24.00;22.00;;;;;23.65;40.91;99266.72;6238760;27;126382;-61
2021/06/05 00:15:40;;;;;;;;;28.50;24.50;;;;;23.65;41.01;99262.00;6201072;28;125981;-61
2021/06/05 00:18:45;;;;;;;;;25.50;23.50;;;;;23.64;40.59;99259.56;6198871;28;126361;-61
2021/06/05 00:21:49;;;;;;;;;24.60;23.60;;;;;23.53;40.06;99256.16;6237629;27;124848;-61
2021/06/05 00:24:51;;;;;;;;;23.00;22.00;;;;;23.49;40.94;99254.28;6238414;27;126386;-61
2021/06/05 00:27:55;;;;;;;;;21.40;20.00;;;;;23.47;40.88;99248.25;6216405;27;124912;-61
2021/06/05 00:30:58;;;;;;;;;26.00;23.00;;;;;23.43;40.81;99242.50;6224698;28;124961;-61
2021/06/05 00:34:02;;;;;;;;;24.00;22.00;;;;;23.46;40.95;99247.44;6238393;27;126812;-61
2021/06/05 00:37:04;;;;;;;;;25.60;23.80;;;;;23.48;39.94;99244.38;6214245;27;124105;-61
2021/06/05 00:40:09;;;;;;;;;28.00;26.00;;;;;23.48;39.83;99236.13;6226862;27;125326;-61
2021/06/05 00:43:14;;;;;;;;;27.00;25.75;;;;;23.44;39.76;99233.13;6238335;27;125370;-61
2021/06/05 00:46:20;;;;;;;;;23.00;21.40;;;;;23.21;39.69;99192.75;6228237;27;124889;-61
2021/06/05 00:49:25;;;;;;;;;23.00;21.00;;;;;23.35;40.07;99236.84;6215123;28;124038;-61
2021/06/05 00:52:31;;;;;;;;;25.00;22.40;;;;;23.21;40.30;99220.28;6236385;28;124808;-61
2021/06/05 00:55:37;;;;;;;;;26.50;25.50;;;;;23.38;39.74;99226.06;6232077;28;125054;-61
2021/06/05 00:58:42;;;;;;;;;28.00;26.00;;;;;23.28;38.97;99212.44;6206168;28;124928;-61
2021/06/05 01:01:45;;;;;;;;;27.00;26.00;;;;;23.46;38.43;99216.34;6190951;28;126858;-61
2021/06/05 01:04:49;;;;;;;;;31.60;27.60;;;;;23.50;38.22;99226.47;6202539;28;125021;-61
2021/06/05 01:07:56;;;;;;;;;29.00;26.00;;;;;23.57;38.40;99215.91;6193533;28;125838;-61
2021/06/05 01:11:07;;;;;;;;;26.40;25.40;;;;;23.60;38.25;99214.50;6231896;28;126516;-61
2021/06/05 01:14:24;;;;;;;;;24.60;23.60;;;;;23.65;38.48;99212.47;6235379;28;127706;-61
2021/06/05 01:17:30;;;;;;;;;25.00;24.00;;;;;23.68;38.67;99214.63;6217173;28;126118;-61
2021/06/05 01:20:54;;;;;;;;;24.80;22.00;;;;;23.71;38.63;99204.94;6226026;28;126138;-61
2021/06/05 01:24:09;;;;;;;;;25.00;23.00;;;;;23.70;39.01;99200.56;6237593;27;125796;-61
2021/06/05 01:27:22;;;;;;;;;25.50;24.50;;;;;23.69;39.28;99205.25;6217954;28;126012;-61
2021/06/05 01:30:30;;;;;;;;;26.20;24.20;;;;;23.61;39.47;99200.41;6224660;28;124887;-61
2021/06/05 01:33:39;;;;;;;;;24.00;23.00;;;;;23.60;39.95;99190.50;6237547;27;125362;-61
2021/06/05 01:36:47;;;;;;;;;26.60;24.40;;;;;23.61;40.29;99178.41;6210678;28;124838;-61
2021/06/05 01:39:52;;;;;;;;;22.00;19.60;;;;;23.64;40.24;99180.56;6221988;28;126178;-61
2021/06/05 01:43:01;;;;;;;;;23.40;21.20;;;;;23.61;40.63;99177.56;6235360;28;125953;-61
2021/06/05 01:46:08;;;;;;;;;26.00;23.00;;;;;23.60;39.95;99189.72;6231582;27;125973;-61
2021/06/05 01:49:12;;;;;;;;;21.00;21.00;;;;;23.57;40.25;99199.38;6211187;28;126592;-61
2021/06/05 01:52:34;;;;;;;;;27.33;23.00;;;;;23.56;40.56;99196.91;6237003;27;124690;-61
2021/06/05 01:55:44;;;;;;;;;27.00;25.00;;;;;23.59;41.26;99193.59;6216131;27;126255;-61
2021/06/05 01:58:52;;;;;;;;;26.20;23.00;;;;;23.57;41.29;99196.63;6215313;28;125967;-61
2021/06/05 02:02:08;;;;;;;;;27.40;26.00;;;;;23.64;41.08;99199.00;6235055;28;124800;-61
2021/06/05 02:05:13;;;;;;;;;27.00;25.00;;;;;23.62;40.75;99198.47;6235119;28;124887;-61
2021/06/05 02:08:19;;;;;;;;;28.75;24.75;;;;;23.61;40.47;99208.66;6214387;27;124190;-62
2021/06/05 02:11:26;;;;;;;;;28.00;26.40;;;;;23.65;40.48;99195.16;6200135;27;125717;-61
2021/06/05 02:14:37;;;;;;;;;27.20;24.40;;;;;23.63;40.74;99203.69;6186340;28;126092;-61
2021/06/05 02:17:41;;;;;;;;;29.50;28.00;;;;;23.59;40.81;99201.84;6174025;28;124889;-61
2021/06/05 02:20:52;;;;;;;;;25.00;24.40;;;;;23.37;42.36;99194.16;6229675;28;127949;-61
2021/06/05 02:24:01;;;;;;;;;31.00;28.20;;;;;23.38;42.64;99190.28;6236440;27;124830;-61
2021/06/05 02:27:06;;;;;;;;;29.00;27.00;;;;;23.30;43.06;99193.72;6220489;28;124613;-61
2021/06/05 02:30:19;;;;;;;;;29.40;27.40;;;;;23.24;43.00;99189.41;6209581;28;125074;-61
2021/06/05 02:33:24;;;;;;;;;28.00;26.40;;;;;23.26;43.31;99184.44;6183002;28;124510;-61
2021/06/05 02:36:28;;;;;;;;;29.25;27.25;;;;;23.26;43.61;99184.44;6189144;28;125062;-61
2021/06/05 02:39:32;;;;;;;;;28.00;25.00;;;;;23.19;43.70;99187.53;6214589;28;125188;-61
2021/06/05 02:42:42;;;;;;;;;26.20;24.80;;;;;23.21;43.71;99185.28;6192810;28;127023;-61
2021/06/05 02:45:52;;;;;;;;;28.75;26.75;;;;;23.16;43.96;99177.16;6190961;28;126689;-62
2021/06/05 02:49:01;;;;;;;;;23.75;23.25;;;;;23.11;44.26;99185.47;6200016;28;124637;-61
2021/06/05 02:52:29;;;;;;;;;29.00;26.00;;;;;23.10;44.69;99192.06;6234236;28;125886;-61
2021/06/05 02:55:38;;;;;;;;;25.80;23.20;;;;;23.14;44.37;99198.63;6213060;28;124839;-61
2021/06/05 02:58:43;;;;;;;;;28.00;24.00;;;;;23.20;44.63;99211.19;6211735;28;126723;-61
2021/06/05 03:01:53;;;;;;;;;27.00;25.00;;;;;23.28;43.95;99204.19;6236178;27;99645;-61
2021/06/05 03:04:57;;;;;;;;;26.00;23.00;;;;;23.30;44.11;99208.31;6219264;28;126254;-61
2021/06/05 03:08:03;;;;;;;;;23.20;20.60;;;;;23.32;43.32;99206.06;6202285;28;125848;-61
2021/06/05 03:11:11;;;;;;;;;23.20;21.00;;;;;23.37;43.72;99196.09;6214862;28;125051;-61
2021/06/05 03:14:15;;;;;;;;;23.00;21.50;;;;;23.41;43.02;99206.19;6186197;28;124909;-61
2021/06/05 03:17:21;;;;;;;;;26.00;23.80;;;;;23.37;43.45;99201.59;6183569;28;125259;-61
2021/06/05 03:20:29;;;;;;;;;24.50;23.00;;;;;23.35;43.62;99201.91;6227415;28;125900;-61
2021/06/05 03:23:33;;;;;;;;;26.40;24.00;;;;;23.38;44.29;99208.72;6235294;27;126047;-61
2021/06/05 03:26:39;;;;;;;;;23.75;22.25;;;;;23.31;44.75;99215.41;6226317;28;126430;-61
2021/06/05 03:29:46;;;;;;;;;27.40;24.40;;;;;23.36;44.69;99213.72;6219575;28;126719;-61
2021/06/05 03:32:51;;;;;;;;;26.60;24.00;;;;;23.34;44.66;99219.53;6209508;28;124147;-61
2021/06/05 03:35:55;;;;;;;;;25.40;24.00;;;;;23.29;44.01;99219.59;6190687;28;126493;-61
2021/06/05 03:38:59;;;;;;;;;23.33;22.00;;;;;23.27;43.97;99225.38;6208732;28;125913;-61
2021/06/05 03:42:08;;;;;;;;;20.00;18.00;;;;;23.12;44.14;99231.09;6200701;28;125214;-61
2021/06/05 03:45:12;;;;;;;;;18.80;17.20;;;;;23.13;43.91;99234.66;6184764;28;127073;-61
2021/06/05 03:48:17;;;;;;;;;14.00;13.00;;;;;23.03;43.75;99245.78;6194495;28;124784;-61
2021/06/05 03:51:21;;;;;;;;;15.60;14.60;;;;;23.07;43.45;99241.34;6231284;27;126088;-61
2021/06/05 03:54:24;;;;;;;;;14.00;12.00;;;;;23.13;43.21;99243.72;6223924;28;126166;-61
2021/06/05 03:57:27;;;;;;;;;14.00;12.50;;;;;23.16;43.21;99234.91;6209111;28;125048;-61
2021/06/05 04:00:34;;;;;;;;;10.60;9.00;;;;;23.17;43.36;99236.53;6209875;27;125200;-61
2021/06/05 04:03:38;;;;;;;;;14.00;12.20;;;;;23.16;43.24;99239.59;6189931;28;124865;-62
2021/06/05 04:06:41;;;;;;;;;13.00;12.00;;;;;23.18;43.41;99248.34;6193395;28;125468;-61
2021/06/05 04:09:45;;;;;;;;;12.00;11.00;;;;;23.14;43.68;99259.13;6222593;28;126253;-61
2021/06/05 04:12:47;;;;;;;;;11.00;10.80;;;;;23.13;43.85;99253.91;6236879;27;126312;-61
2021/06/05 04:15:50;;;;;;;;;11.40;11.00;;;;;22.99;43.80;99250.25;6237296;27;126144;-61
2021/06/05 04:18:55;;;;;;;;;12.00;12.00;;;;;22.99;43.88;99250.25;6209295;27;125509;-61
2021/06/05 04:21:58;;;;;;;;;11.00;11.00;;;;;23.01;44.30;99259.03;6189503;28;125732;-61
2021/06/05 04:25:01;;;;;;;;;12.00;11.40;;;;;23.07;43.52;99268.84;6207395;28;125229;-61
2021/06/05 04:28:05;;;;;;;;;11.40;10.00;;;;;23.05;43.77;99271.91;6200360;28;125624;-61
2021/06/05 04:31:10;;;;;;;;;10.00;9.60;;;;;23.07;43.95;99277.91;6210567;27;125601;-61
2021/06/05 04:34:14;;;;;;;;;12.00;10.00;;;;;23.07;43.32;99279.84;6196663;28;124857;-61
2021/06/05 04:37:17;;;;;;;;;10.00;9.00;;;;;23.07;43.81;99280.66;6187143;28;124687;-61
2021/06/05 04:40:21;;;;;;;;;9.40;9.00;;;;;23.08;43.60;99293.31;6206650;27;124121;-61
2021/06/05 04:43:24;;;;;;;;;11.00;10.00;;;;;22.93;43.92;99285.22;6194902;28;127441;-61
2021/06/05 04:46:27;;;;;;;;;10.00;9.60;;;;;22.82;43.90;99270.78;6212080;28;126792;-61
2021/06/05 04:49:31;;;;;;;;;11.00;10.80;;;;;22.97;43.58;99285.50;6218696;28;125144;-61
2021/06/05 04:52:36;;;;;;;;;13.00;10.20;;;;;23.00;43.85;99282.97;6238188;27;124264;-61
2021/06/05 04:55:39;;;;;;;;;11.00;10.00;;;;;23.01;43.95;99270.84;6236771;28;123597;-61
2021/06/05 04:58:41;;;;;;;;;13.00;12.00;;;;;22.99;43.93;99267.56;6216095;27;126238;-61
2021/06/05 05:01:45;;;;;;;;;10.60;10.00;;;;;22.84;44.01;99232.81;6194350;28;127321;-61
2021/06/05 05:04:49;;;;;;;;;9.60;9.00;;;;;22.98;44.14;99260.44;6192536;28;125003;-61
2021/06/05 05:07:52;;;;;;;;;12.00;11.60;;;;;22.96;44.54;99259.91;6188361;28;124680;-61
2021/06/05 05:10:56;;;;;;;;;16.80;14.80;;;;;22.86;44.69;99260.03;6217725;27;125087;-62
2021/06/05 05:13:59;;;;;;;;;17.00;15.00;;;;;22.82;45.26;99270.78;6197409;28;125534;-62
2021/06/05 05:17:02;;;;;;;;;17.00;15.00;;;;;22.81;45.03;99282.91;6188585;28;125260;-62
2021/06/05 05:20:09;;;;;;;;;17.60;15.00;;;;;22.77;45.29;99281.03;6221820;28;126350;-61
2021/06/05 05:23:13;;;;;;;;;15.00;13.00;;;;;22.81;45.50;99288.41;6238178;27;124761;-61
2021/06/05 05:26:17;;;;;;;;;14.60;13.60;;;;;22.80;45.21;99294.19;6237819;27;125661;-61
2021/06/05 05:29:20;;;;;;;;;13.00;12.60;;;;;22.75;45.14;99297.81;6204434;28;125080;-61
2021/06/05 05:32:23;;;;;;;;;13.00;12.50;;;;;22.89;45.44;99308.94;6212809;28;126306;-61
2021/06/05 05:35:28;;;;;;;;;13.20;12.00;;;;;22.93;45.34;99309.97;6198333;28;126775;-62
2021/06/05 05:38:31;;;;;;;;;15.75;14.00;;;;;23.00;45.38;99310.47;6194734;28;126002;-61
2021/06/05 05:41:34;;;;;;;;;13.00;11.20;;;;;22.97;45.71;99301.97;6199451;27;125965;-61
2021/06/05 05:44:37;;;;;;;;;13.00;12.80;;;;;22.93;46.34;99307.22;6198371;28;126684;-61
2021/06/05 05:47:40;;;;;;;;;13.25;12.25;;;;;22.86;46.61;99304.84;6198683;28;126422;-61
2021/06/05 05:50:47;;;;;;;;;12.80;11.80;;;;;22.82;46.95;99300.22;6201511;28;127221;-62
2021/06/05 05:53:50;;;;;;;;;13.50;12.25;;;;;22.63;47.83;99278.09;6212464;28;125121;-62
2021/06/05 05:56:53;;;;;;;;;14.00;13.00;;;;;22.65;48.16;99278.66;6199672;28;126837;-62
2021/06/05 05:59:56;;;;;;;;;13.00;12.00;;;;;22.63;48.05;99277.28;6197298;28;125063;-62
2021/06/05 06:02:58;;;;;;;;;12.00;12.00;;;;;22.62;48.76;99267.44;6206180;28;127333;-62
2021/06/05 06:06:06;;;;;;;;;13.50;13.00;;;;;22.61;48.92;99263.03;6198329;28;126164;-61
2021/06/05 06:09:08;;;;;;;;;12.00;11.00;;;;;22.46;49.37;99247.53;6208908;28;124583;-62
2021/06/05 06:12:12;;;;;;;;;12.40;11.60;;;;;22.30;49.49;99254.28;6208563;27;125181;-62
2021/06/05 06:15:18;;;;;;;;;13.75;12.75;;;;;22.16;50.02;99240.41;6186546;28;124886;-61
2021/06/05 06:18:21;;;;;;;;;14.00;13.00;;;;;22.11;50.47;99242.38;6199004;28;127722;-61
2021/06/05 06:21:25;;;;;;;;;13.00;12.00;;;;;21.81;50.89;99244.22;6198768;27;126186;-62
2021/06/05 06:24:28;;;;;;;;;12.60;11.00;;;;;21.84;50.74;99257.41;6197671;28;125342;-61
2021/06/05 06:27:32;;;;;;;;;14.00;13.40;;;;;21.86;50.60;99255.16;6202394;28;126220;-61
2021/06/05 06:30:38;;;;;;;;;17.00;16.40;;;;;21.82;51.17;99258.78;6193291;28;125645;-62
2021/06/05 06:33:42;;;;;;;;;15.33;15.00;;;;;21.89;50.61;99262.03;6198912;28;125625;-62
2021/06/05 06:36:47;;;;;;;;;13.20;12.00;;;;;21.95;50.99;99253.47;6193736;28;125657;-61
2021/06/05 06:39:49;;;;;;;;;13.50;12.00;;;;;21.72;51.35;99232.22;6188320;28;127285;-61
2021/06/05 06:42:52;;;;;;;;;15.00;13.50;;;;;21.89;50.88;99254.59;6199607;28;126092;-61
2021/06/05 06:45:57;;;;;;;;;15.75;14.00;;;;;21.92;51.98;99262.28;6197636;28;126356;-62
2021/06/05 06:49:01;;;;;;;;;14.00;13.50;;;;;21.95;51.51;99255.41;6195557;28;127308;-61
2021/06/05 06:52:06;;;;;;;;;16.40;16.00;;;;;21.94;51.44;99245.56;6194086;28;124489;-62
2021/06/05 06:55:10;;;;;;;;;16.00;15.00;;;;;22.01;51.47;99235.03;6195667;28;124796;-61
2021/06/05 06:58:13;;;;;;;;;16.40;15.80;;;;;22.05;51.58;99222.38;6193131;27;126693;-61
2021/06/05 07:01:27;;;;;;;;;15.00;14.00;;;;;22.12;51.00;99216.56;6263552;27;96891;-61
2021/06/05 07:04:29;;;;;;;;;17.00;15.00;;;;;22.21;50.90;99206.56;6206215;28;126987;-59
2021/06/05 07:07:32;;;;;;;;;14.40;14.00;;;;;22.33;50.64;99213.31;6200304;28;126877;-59
2021/06/05 07:10:35;;;;;;;;;14.00;13.00;;;;;22.46;50.21;99215.38;6199290;28;126461;-60
2021/06/05 07:13:38;;;;;;;;;14.40;14.00;;;;;22.60;49.62;99206.44;6205835;28;126836;-59
2021/06/05 07:16:42;;;;;;;;;12.40;12.40;;;;;22.76;49.28;99214.25;6204221;28;124513;-60
2021/06/05 07:19:45;;;;;;;;;14.00;13.75;;;;;22.79;49.17;99213.66;6196133;28;126128;-59
2021/06/05 07:22:48;;;;;;;;;14.00;11.00;;;;;23.01;48.58;99224.09;6206044;28;124917;-60
2021/06/05 07:25:53;;;;;;;;;14.00;13.00;;;;;23.12;48.72;99224.75;6205553;28;126609;-59
2021/06/05 07:28:58;;;;;;;;;13.00;11.00;;;;;23.31;49.21;99228.38;6186251;28;126309;-59
2021/06/05 07:32:04;;;;;;;;;14.50;14.00;;;;;23.48;48.46;99228.69;6206512;28;124077;-60
2021/06/05 07:35:09;;;;;;;;;16.40;15.40;;;;;23.52;48.73;99228.91;6204996;28;126411;-60
2021/06/05 07:38:14;;;;;;;;;15.00;14.00;;;;;23.73;47.06;99224.75;6199292;28;126190;-60
2021/06/05 07:41:17;;;;;;;;;15.50;15.00;;;;;23.77;48.39;99223.00;6202009;28;124817;-60
2021/06/05 07:44:21;;;;;;;;;15.50;14.50;;;;;23.78;47.02;99221.91;6205637;28;126529;-60
2021/06/05 07:47:25;;;;;;;;;14.80;13.80;;;;;23.95;47.30;99218.59;6201509;28;123961;-60
2021/06/05 07:50:28;;;;;;;;;16.00;13.75;;;;;23.97;46.35;99210.84;6198092;28;122891;-60
2021/06/05 07:53:31;;;;;;;;;15.00;14.00;;;;;24.00;46.58;99216.56;6202514;28;126363;-60
2021/06/05 07:56:34;;;;;;;;;16.00;15.00;;;;;24.04;46.28;99211.28;6182652;28;126289;-60
2021/06/05 07:59:37;;;;;;;;;14.20;14.00;;;;;24.01;46.41;99207.19;6190175;28;126044;-60
2021/06/05 08:02:42;;;;;;;;;15.25;14.75;;;;;23.95;47.32;99213.91;6206138;28;127208;-60
2021/06/05 08:05:44;;;;;;;;;15.00;14.00;;;;;23.99;46.70;99209.44;6206047;28;124914;-60
2021/06/05 08:08:48;;;;;;;;;13.50;13.50;;;;;23.96;46.10;99218.28;6195048;28;125037;-60
2021/06/05 08:11:50;;;;;;;;;16.00;15.00;;;;;23.76;46.29;99213.13;6194432;28;124986;-60
2021/06/05 08:14:53;;;;;;;;;12.00;11.50;;;;;23.64;47.03;99215.53;6189473;28;125268;-60
2021/06/05 08:17:58;;;;;;;;;13.00;13.00;;;;;23.63;47.49;99211.13;6181613;28;127093;-60
2021/06/05 08:21:06;;;;;;;;;13.00;12.50;;;;;23.58;47.36;99201.03;6185427;28;126029;-60
2021/06/05 08:24:09;;;;;;;;;13.00;12.00;;;;;23.63;47.51;99195.44;6188063;28;124854;-60
2021/06/05 08:27:13;;;;;;;;;12.00;11.00;;;;;23.70;47.62;99193.09;6168086;28;124898;-60
2021/06/05 08:30:19;;;;;;;;;13.00;12.00;;;;;23.84;47.54;99190.44;6180882;28;124798;-61
2021/06/05 08:33:24;;;;;;;;;12.80;11.20;;;;;24.08;46.18;99171.00;6188575;28;126288;-60
2021/06/05 08:36:28;;;;;;;;;12.00;11.00;;;;;24.29;46.04;99177.78;6164495;28;126862;-60
2021/06/05 08:39:31;;;;;;;;;10.60;10.60;;;;;24.48;44.27;99178.50;6172760;28;123930;-60
2021/06/05 08:42:42;;;;;;;;;10.50;9.50;;;;;24.65;43.72;99177.91;6188006;28;126101;-60
2021/06/05 08:45:45;;;;;;;;;10.00;9.00;;;;;24.93;44.50;99171.28;6188705;28;127108;-60
2021/06/05 08:48:50;;;;;;;;;9.40;8.60;;;;;25.06;43.12;99175.16;6176909;28;127342;-60
2021/06/05 08:51:58;;;;;;;;;9.00;8.00;;;;;25.57;42.72;99169.28;6188780;28;126115;-60
2021/06/05 08:55:06;;;;;;;;;16.40;13.40;;;;;26.06;41.15;99164.72;6187713;28;126005;-60
2021/06/05 08:58:28;;;;;;;;;12.20;10.60;;;;;26.59;40.11;99157.19;6180660;28;124861;-60
2021/06/05 09:01:37;;;;;;;;;16.50;16.00;;;;;26.97;39.67;99168.56;6188028;28;123990;-60
2021/06/05 09:04:42;;;;;;;;;9.00;8.25;;;;;26.96;38.87;99147.56;6188213;28;125906;-60
2021/06/05 09:07:45;;;;;;;;;11.00;9.40;;;;;27.05;38.60;99166.94;6182146;28;126944;-60
2021/06/05 09:10:49;;;;;;;;;8.00;8.00;;;;;27.17;39.20;99162.38;6182055;28;126205;-61
2021/06/05 09:13:52;;;;;;;;;18.20;17.00;;;;;27.57;39.67;99151.19;6187847;28;124836;-60
2021/06/05 09:16:59;;;;;;;;;9.40;9.00;;;;;27.73;38.33;99143.19;6187827;28;126030;-60
2021/06/05 09:20:11;;;;;;;;;9.60;9.40;;;;;27.91;37.05;99147.53;6176511;28;126085;-61
2021/06/05 09:23:30;;;;;;;;;9.00;8.00;;;;;28.22;37.73;99139.84;6186201;28;126172;-60
2021/06/05 09:26:33;;;;;;;;;10.00;9.00;;;;;28.38;36.94;99135.38;6172610;28;125739;-60
2021/06/05 09:29:53;;;;;;;;;9.00;9.00;;;;;28.24;36.36;99117.31;6176708;28;124479;-60
2021/06/05 09:33:00;;;;;;;;;11.00;9.80;;;;;28.70;35.82;99125.56;6187306;28;126848;-61
2021/06/05 09:36:18;;;;;;;;;10.00;9.00;;;;;29.02;35.80;99101.88;6187300;28;126149;-60
2021/06/05 09:39:38;;;;;;;;;9.00;9.00;;;;;29.56;35.00;99124.16;6173578;28;123835;-60
2021/06/05 09:42:44;;;;;;;;;9.50;9.00;;;;;29.93;34.65;99136.25;6185305;28;124696;-61
2021/06/05 09:46:02;;;;;;;;;7.40;7.40;;;;;29.86;33.74;99133.97;6187230;28;126637;-61
2021/06/05 09:49:16;;;;;;;;;8.25;8.00;;;;;29.64;34.20;99126.84;6176148;28;124726;-60
2021/06/05 09:52:32;;;;;;;;;8.00;8.00;;;;;29.39;34.59;99127.09;6187318;28;126068;-61
2021/06/05 09:55:37;;;;;;;;;8.00;7.60;;;;;29.21;34.47;99121.66;6163879;28;124185;-60
2021/06/05 09:58:41;;;;;;;;;8.00;8.00;;;;;29.22;34.77;99128.03;6175645;28;127059;-61
2021/06/05 10:01:56;;;;;;;;;7.00;7.00;;;;;29.25;34.74;99122.59;6186703;28;124772;-60
2021/06/05 10:05:08;;;;;;;;;9.00;8.00;;;;;29.32;35.77;99118.50;6186941;28;124956;-60
2021/06/05 10:08:28;;;;;;;;;7.00;7.00;;;;;29.29;34.75;99111.63;6178195;28;126026;-60
2021/06/05 10:11:34;;;;;;;;;9.00;7.75;;;;;29.42;35.11;99113.31;6185849;28;126050;-60
2021/06/05 10:14:52;;;;;;;;;7.00;7.00;;;;;29.61;34.63;99119.22;6185803;28;124090;-61
2021/06/05 10:17:58;;;;;;;;;9.60;9.00;;;;;29.73;35.08;99118.44;6177678;28;126093;-60
2021/06/05 10:21:06;;;;;;;;;8.00;8.00;;;;;29.87;34.07;99129.25;6183483;28;124364;-60
2021/06/05 10:24:22;;;;;;;;;8.60;7.60;;;;;29.94;33.74;99122.00;6185998;28;126845;-60
2021/06/05 10:27:29;;;;;;;;;7.00;6.00;;;;;29.78;33.94;99115.44;6182000;28;124963;-60
2021/06/05 10:30:44;;;;;;;;;6.60;6.00;;;;;30.05;32.37;99125.16;6180493;28;125297;-61
2021/06/05 10:33:50;;;;;;;;;6.00;6.00;;;;;30.17;32.18;99110.44;6164371;28;124259;-60
2021/06/05 10:36:55;;;;;;;;;7.80;7.80;;;;;30.31;32.08;99120.09;6161886;28;124751;-61
2021/06/05 10:40:02;;;;;;;;;7.00;6.00;;;;;30.50;32.35;99105.63;6173549;28;126089;-61
2021/06/05 10:43:10;;;;;;;;;6.50;6.00;;;;;30.71;32.21;99097.16;6183689;28;124966;-61
2021/06/05 10:46:38;;;;;;;;;5.40;5.40;;;;;30.96;31.23;99080.06;6184989;28;126966;-61
2021/06/05 10:49:49;;;;;;;;;6.00;6.00;;;;;31.42;31.24;99100.16;6175596;28;124988;-61
2021/06/05 10:52:55;;;;;;;;;6.00;6.00;;;;;31.47;29.83;99072.03;6185408;28;126465;-61
2021/06/05 10:56:11;;;;;;;;;6.00;6.00;;;;;31.61;30.27;99093.94;6179401;28;127096;-61
2021/06/05 10:59:48;;;;;;;;;7.00;6.40;;;;;31.70;29.41;99084.25;6174714;28;125934;-61
2021/06/05 11:02:52;;;;;;;;;7.80;7.80;;;;;31.90;30.24;99078.78;6185305;28;125793;-61
2021/06/05 11:06:01;;;;;;;;;7.00;7.00;;;;;32.16;29.79;99079.91;6185902;28;127368;-61
2021/06/05 11:09:37;;;;;;;;;6.60;6.60;;;;;32.36;29.37;99078.00;6175360;28;123790;-61
2021/06/05 11:12:48;;;;;;;;;7.00;6.00;;;;;32.44;28.31;99057.50;6185981;28;125060;-61
2021/06/05 11:15:58;;;;;;;;;6.00;6.00;;;;;32.58;28.56;99066.19;6185716;28;124677;-61
2021/06/05 11:19:32;;;;;;;;;7.60;7.00;;;;;32.42;28.52;99061.78;6174527;28;125904;-61
2021/06/05 11:23:09;;;;;;;;;6.00;5.50;;;;;32.55;28.74;99066.09;6184878;28;126112;-61
2021/06/05 11:26:36;;;;;;;;;7.60;6.60;;;;;32.61;28.27;99053.47;6185737;28;126054;-61
2021/06/05 11:29:54;;;;;;;;;8.00;7.40;;;;;32.67;28.86;99041.72;6174123;28;125807;-61
2021/06/05 11:32:58;;;;;;;;;6.80;6.20;;;;;32.62;29.26;99039.16;6184724;28;125791;-61
2021/06/05 11:36:02;;;;;;;;;8.40;8.00;;;;;32.53;28.12;99029.38;6184396;28;126446;-61
2021/06/05 11:39:07;;;;;;;;;6.20;6.20;;;;;32.50;27.85;99028.09;6171604;28;125934;-61
2021/06/05 11:42:57;;;;;;;;;7.00;6.40;;;;;32.77;28.59;99022.75;6185218;28;125925;-61
2021/06/05 11:46:05;;;;;;;;;8.00;7.00;;;;;32.89;28.14;99026.22;6118918;28;125650;-61
2021/06/05 11:49:09;;;;;;;;;7.00;7.00;;;;;33.07;27.59;99027.41;6126062;28;126197;-61
2021/06/05 11:52:49;;;;;;;;;7.40;7.00;;;;;33.39;27.79;99030.88;6138161;28;126966;-61
2021/06/05 11:55:55;;;;;;;;;8.40;7.40;;;;;33.51;27.11;99022.34;6130187;28;124125;-61
2021/06/05 11:59:05;;;;;;;;;8.00;8.00;;;;;33.67;27.43;99013.03;6124674;28;126094;-61
2021/06/05 12:02:21;;;;;;;;;9.00;8.00;;;;;33.82;26.49;99004.53;6133953;28;125331;-61
2021/06/05 12:05:27;;;;;;;;;6.75;6.00;;;;;34.02;27.12;98998.88;6136793;28;127659;-61
2021/06/05 12:08:30;;;;;;;;;10.00;9.00;;;;;33.78;27.03;99000.06;6125417;28;125023;-61
2021/06/05 12:11:38;;;;;;;;;7.00;7.00;;;;;33.57;26.83;99000.47;6136724;28;126899;-61
2021/06/05 12:14:47;;;;;;;;;7.40;7.00;;;;;33.28;25.75;99004.69;6133352;28;123804;-61
2021/06/05 12:17:58;;;;;;;;;8.00;8.00;;;;;32.99;26.61;98994.91;6167979;28;126874;-61
2021/06/05 12:21:06;;;;;;;;;7.20;7.00;;;;;32.54;27.17;99003.09;6185461;28;124904;-60
2021/06/05 12:24:15;;;;;;;;;8.80;8.00;;;;;32.31;29.12;99002.94;6184581;28;123963;-61
2021/06/05 12:27:26;;;;;;;;;9.00;9.00;;;;;32.11;32.16;99006.84;6184254;28;127575;-61
2021/06/05 12:30:30;;;;;;;;;8.00;8.00;;;;;31.90;30.52;98997.94;6179215;28;125282;-61
2021/06/05 12:33:35;;;;;;;;;9.00;8.40;;;;;32.04;30.51;98996.31;6186922;28;125927;-61
2021/06/05 12:36:40;;;;;;;;;7.80;7.00;;;;;32.42;30.54;98983.66;6186528;28;126020;-61
2021/06/05 12:39:48;;;;;;;;;8.00;8.00;;;;;32.72;30.02;98976.41;6176647;28;126418;-61
2021/06/05 12:42:51;;;;;;;;;7.00;7.00;;;;;32.99;30.28;98974.53;6184715;28;125763;-61
2021/06/05 12:45:57;;;;;;;;;8.80;7.80;;;;;33.25;30.27;98974.72;6187053;28;124852;-61
2021/06/05 12:49:04;;;;;;;;;9.00;8.00;;;;;33.56;29.46;98986.88;6175135;28;125953;-61
2021/06/05 12:52:16;;;;;;;;;8.00;8.00;;;;;33.75;28.26;98970.88;6185343;28;126645;-61
2021/06/05 12:55:28;;;;;;;;;10.00;8.50;;;;;33.84;27.37;98954.63;6186203;28;125606;-61
2021/06/05 12:58:37;;;;;;;;;8.50;8.00;;;;;33.82;28.10;98947.78;6197447;28;124686;-61
2021/06/05 13:01:42;;;;;;;;;9.00;8.00;;;;;33.53;27.59;98931.72;6186042;28;124571;-61
2021/06/05 13:04:46;;;;;;;;;9.00;8.60;;;;;33.41;28.90;98927.09;6183511;28;126953;-61
2021/06/05 13:07:51;;;;;;;;;9.40;9.00;;;;;33.38;28.80;98920.25;6181401;28;124882;-61
2021/06/05 13:10:55;;;;;;;;;7.80;7.80;;;;;33.68;28.57;98937.19;6183384;28;126482;-61
2021/06/05 13:14:36;;;;;;;;;8.00;8.00;;;;;33.50;28.95;98933.25;6180902;28;126646;-61
2021/06/05 13:17:42;;;;;;;;;8.00;8.00;;;;;33.50;28.99;98936.84;6183122;28;123793;-61
2021/06/05 13:20:49;;;;;;;;;7.75;7.00;;;;;33.46;28.65;98937.97;6180941;28;124920;-61
2021/06/05 13:24:09;;;;;;;;;10.00;10.00;;;;;33.23;27.82;98918.41;6186600;28;125963;-61
2021/06/05 13:27:17;;;;;;;;;8.00;8.00;;;;;33.15;28.83;98916.59;6184053;28;124513;-61
2021/06/05 13:30:23;;;;;;;;;9.00;8.40;;;;;33.11;29.40;98901.78;6181482;28;125961;-61
2021/06/05 13:33:32;;;;;;;;;10.00;10.00;;;;;33.06;29.32;98902.88;6186634;28;127096;-61
2021/06/05 13:36:37;;;;;;;;;7.00;7.00;;;;;32.92;29.20;98905.41;6186985;28;125903;-61
2021/06/05 13:39:40;;;;;;;;;10.60;9.60;;;;;32.89;28.55;98903.34;6175555;28;125288;-61
2021/06/05 13:42:46;;;;;;;;;11.00;10.00;;;;;32.72;30.24;98892.63;6186648;28;125514;-61
2021/06/05 13:45:49;;;;;;;;;11.00;10.00;;;;;32.74;29.89;98903.44;6182697;28;126260;-61
2021/06/05 13:48:51;;;;;;;;;11.00;10.50;;;;;32.72;29.72;98905.78;6173861;28;126628;-61
2021/06/05 13:51:56;;;;;;;;;11.00;11.00;;;;;32.82;29.37;98905.19;6185317;28;126083;-61
2021/06/05 13:55:04;;;;;;;;;10.00;10.00;;;;;32.84;29.65;98903.63;6166455;28;124780;-61
2021/06/05 13:58:10;;;;;;;;;10.60;10.00;;;;;32.79;29.41;98909.53;6162045;28;126403;-61
2021/06/05 14:01:17;;;;;;;;;10.00;10.00;;;;;32.69;30.76;98914.91;6171104;28;124183;-61
2021/06/05 14:04:20;;;;;;;;;10.00;10.00;;;;;32.56;30.21;98934.53;6185345;28;122882;-61
2021/06/05 14:07:24;;;;;;;;;9.50;9.00;;;;;32.22;30.19;98941.75;6177786;28;124838;-61
2021/06/05 14:10:28;;;;;;;;;10.00;9.00;;;;;31.73;31.58;98933.00;6177664;28;125780;-61
2021/06/05 14:13:31;;;;;;;;;9.00;8.00;;;;;31.18;29.85;98949.84;6185403;28;126735;-61
2021/06/05 14:16:33;;;;;;;;;6.00;6.00;;;;;30.58;30.28;98948.88;6186368;28;124895;-61